Time;durP1;ratioP1;P1;durP2;ratioP2;P2;SDS_P1;SDS_P2;PMS_P1;PMS_P2;Temp;Humidity;BMP_temperature;BMP_pressure;BME280_temperature;BME280_humidity;BME280_pressure;Samples;Min_cycle;Max_cycle;Signal;HPM_P1;HPM_P2
2021/10/10 00:01:59;;;;;;;15.37;10.07;;;;;;;6.31;78.05;103215.56;5002503;28;20195;-78
2021/10/10 00:04:24;;;;;;;15.40;10.17;;;;;;;6.32;78.41;103215.69;4994399;28;20278;-76
2021/10/10 00:06:50;;;;;;;15.83;10.53;;;;;;;6.24;78.36;103214.22;4996611;28;20192;-77
2021/10/10 00:09:15;;;;;;;14.33;10.30;;;;;;;6.21;78.31;103211.44;5002586;28;20713;-77
2021/10/10 00:11:40;;;;;;;16.23;10.37;;;;;;;6.16;78.86;103210.19;5006682;28;20190;-76
2021/10/10 00:14:06;;;;;;;12.23;9.90;;;;;;;6.17;78.61;103213.63;5004453;28;20235;-77
2021/10/10 00:16:31;;;;;;;13.30;9.67;;;;;;;6.19;77.92;103207.00;5005190;28;20199;-78
2021/10/10 00:18:57;;;;;;;13.57;11.00;;;;;;;6.14;78.54;103210.84;5013566;28;20297;-78
2021/10/10 00:21:22;;;;;;;13.63;10.27;;;;;;;6.11;78.78;103206.44;5010131;28;20183;-78
2021/10/10 00:23:48;;;;;;;16.60;10.17;;;;;;;6.11;78.44;103211.50;4990404;28;20215;-75
2021/10/10 00:26:13;;;;;;;13.53;9.70;;;;;;;6.08;77.74;103215.50;5017985;28;20211;-78
2021/10/10 00:28:38;;;;;;;14.23;10.20;;;;;;;6.07;78.89;103209.50;4971476;28;1016678;-78
2021/10/10 00:31:04;;;;;;;14.70;11.00;;;;;;;6.06;78.93;103205.19;5013341;28;20192;-78
2021/10/10 00:33:29;;;;;;;15.40;10.13;;;;;;;6.07;78.15;103211.16;5005196;28;20270;-77
2021/10/10 00:35:54;;;;;;;17.70;10.47;;;;;;;6.04;78.85;103205.84;5005227;28;20251;-77
2021/10/10 00:38:20;;;;;;;13.83;10.53;;;;;;;5.98;78.84;103198.63;5005552;28;20200;-78
2021/10/10 00:40:45;;;;;;;13.90;10.30;;;;;;;6.00;79.32;103194.56;5006990;28;20258;-78
2021/10/10 00:43:11;;;;;;;17.73;10.43;;;;;;;5.98;78.58;103203.72;5003656;28;20189;-78
2021/10/10 00:45:37;;;;;;;16.40;10.77;;;;;;;6.01;78.44;103201.44;5015021;28;20219;-78
2021/10/10 00:48:03;;;;;;;13.37;10.23;;;;;;;5.98;78.55;103201.19;5003441;28;20229;-78
2021/10/10 00:50:29;;;;;;;15.30;10.73;;;;;;;5.91;78.92;103204.06;4997865;28;20248;-78
2021/10/10 00:52:55;;;;;;;13.73;10.53;;;;;;;5.89;78.68;103200.50;4999306;28;20584;-78
2021/10/10 00:55:22;;;;;;;14.33;10.33;;;;;;;5.86;78.48;103201.91;5011440;28;20212;-78
2021/10/10 00:57:49;;;;;;;15.43;10.60;;;;;;;5.75;79.05;103198.53;5003787;28;20298;-78
2021/10/10 01:00:16;;;;;;;13.37;9.97;;;;;;;5.79;78.61;103198.00;5007021;28;20211;-78
2021/10/10 01:02:43;;;;;;;12.47;9.27;;;;;;;5.78;78.66;103201.31;4988500;28;20196;-78
2021/10/10 01:05:10;;;;;;;15.10;9.87;;;;;;;5.76;78.21;103195.19;5004496;28;20211;-78
2021/10/10 01:07:35;;;;;;;13.63;10.03;;;;;;;5.70;78.13;103189.66;5003966;28;20619;-78
2021/10/10 01:10:01;;;;;;;16.17;10.63;;;;;;;5.68;79.22;103188.69;4992499;28;20200;-78
2021/10/10 01:12:26;;;;;;;13.03;10.47;;;;;;;5.69;79.25;103184.47;4998076;28;20216;-77
2021/10/10 01:14:51;;;;;;;16.63;10.43;;;;;;;5.58;79.88;103182.75;4999774;28;20204;-77
2021/10/10 01:17:17;;;;;;;13.37;10.07;;;;;;;5.60;78.36;103183.75;5000150;28;20558;-77
2021/10/10 01:19:45;;;;;;;12.93;10.00;;;;;;;5.55;79.00;103182.53;5003599;28;20211;-77
2021/10/10 01:22:10;;;;;;;13.17;10.27;;;;;;;5.51;78.31;103185.59;4991714;28;20186;-78
2021/10/10 01:24:35;;;;;;;17.37;11.50;;;;;;;5.53;80.56;103179.00;5003221;28;20602;-77
2021/10/10 01:27:01;;;;;;;14.57;10.03;;;;;;;5.58;80.20;103181.09;5009172;28;20250;-78
2021/10/10 01:29:26;;;;;;;16.63;10.97;;;;;;;5.51;79.64;103181.41;5016509;28;20205;-77
2021/10/10 01:31:51;;;;;;;14.70;10.93;;;;;;;5.46;79.99;103182.72;5017034;28;20590;-78
2021/10/10 01:34:17;;;;;;;15.57;11.17;;;;;;;5.39;79.57;103170.28;5003304;28;20204;-77
2021/10/10 01:36:42;;;;;;;14.93;10.27;;;;;;;5.42;79.63;103172.19;4993606;28;20533;-77
2021/10/10 01:39:08;;;;;;;16.93;10.80;;;;;;;5.47;80.08;103169.22;5008472;28;20633;-77
2021/10/10 01:41:33;;;;;;;13.17;10.23;;;;;;;5.46;79.03;103164.03;5010074;28;20272;-78
2021/10/10 01:43:59;;;;;;;15.93;10.43;;;;;;;5.42;79.35;103172.19;5006807;28;20230;-77
2021/10/10 01:46:24;;;;;;;16.43;11.17;;;;;;;5.43;79.44;103166.34;5008381;28;20199;-77
2021/10/10 01:48:49;;;;;;;15.10;10.90;;;;;;;5.39;79.19;103159.25;5013025;28;20184;-77
2021/10/10 01:51:16;;;;;;;15.60;10.33;;;;;;;5.33;79.69;103161.31;5004513;28;20669;-78
2021/10/10 01:53:41;;;;;;;14.43;10.83;;;;;;;5.28;79.67;103160.97;5010343;28;20224;-77
2021/10/10 01:56:07;;;;;;;17.27;10.90;;;;;;;5.28;79.40;103160.06;5015235;28;20197;-79
2021/10/10 01:58:33;;;;;;;17.47;10.70;;;;;;;5.24;79.96;103158.94;5007637;28;20270;-78
2021/10/10 02:00:58;;;;;;;15.77;11.00;;;;;;;5.26;79.98;103159.06;4999621;28;20184;-77
2021/10/10 02:03:24;;;;;;;14.40;10.47;;;;;;;5.25;79.73;103159.84;4998220;28;20669;-77
2021/10/10 02:05:50;;;;;;;14.83;10.80;;;;;;;5.21;79.95;103150.22;5004157;28;20656;-76
2021/10/10 02:08:19;;;;;;;14.53;10.60;;;;;;;5.19;79.16;103155.16;5010119;28;20190;-78
2021/10/10 02:10:44;;;;;;;13.87;10.37;;;;;;;5.14;79.52;103158.09;5001563;28;20179;-77
2021/10/10 02:13:10;;;;;;;14.30;11.03;;;;;;;5.07;79.23;103145.72;5004715;28;20219;-77
2021/10/10 02:15:38;;;;;;;16.63;10.70;;;;;;;5.02;79.50;103150.41;5017274;28;20301;-78
2021/10/10 02:18:04;;;;;;;15.70;10.13;;;;;;;5.03;79.16;103153.84;4990394;28;20193;-77
2021/10/10 02:20:30;;;;;;;14.90;10.17;;;;;;;4.97;79.16;103153.38;4986532;28;20565;-77
2021/10/10 02:22:55;;;;;;;14.70;10.90;;;;;;;4.92;79.36;103147.06;5010594;28;20201;-77
2021/10/10 02:25:20;;;;;;;14.93;10.60;;;;;;;4.85;79.28;103142.25;5018572;28;20223;-77
2021/10/10 02:27:46;;;;;;;13.87;9.67;;;;;;;4.85;79.67;103138.09;5011110;28;20249;-77
2021/10/10 02:30:11;;;;;;;15.67;10.37;;;;;;;4.86;78.50;103142.38;5014493;28;20206;-77
2021/10/10 02:32:37;;;;;;;15.63;10.30;;;;;;;4.78;78.85;103135.81;4994977;28;20189;-77
2021/10/10 02:35:03;;;;;;;17.03;10.03;;;;;;;4.75;78.56;103135.56;4997703;28;20211;-77
2021/10/10 02:37:29;;;;;;;17.17;10.83;;;;;;;4.71;78.94;103138.66;5040283;28;20216;-77
2021/10/10 02:39:54;;;;;;;13.33;10.10;;;;;;;4.68;78.79;103135.84;5016637;28;20219;-78
2021/10/10 02:42:20;;;;;;;15.13;10.67;;;;;;;4.66;79.04;103128.88;5012993;28;20247;-77
2021/10/10 02:44:45;;;;;;;17.00;10.73;;;;;;;4.62;78.94;103121.78;4998791;28;20204;-77
2021/10/10 02:47:10;;;;;;;14.03;10.63;;;;;;;4.59;79.36;103127.50;4989939;28;20195;-77
2021/10/10 02:49:36;;;;;;;14.73;11.20;;;;;;;4.56;79.63;103124.72;5002183;28;20445;-77
2021/10/10 02:52:01;;;;;;;14.90;9.97;;;;;;;4.54;79.12;103123.72;5005472;28;20200;-77
2021/10/10 02:54:26;;;;;;;13.87;10.97;;;;;;;4.52;79.22;103121.84;5015793;28;20222;-77
2021/10/10 02:56:52;;;;;;;13.10;10.27;;;;;;;4.49;78.83;103124.09;5005933;28;20199;-77
2021/10/10 02:59:17;;;;;;;12.87;10.00;;;;;;;4.36;79.94;103126.41;5013702;28;20215;-77
2021/10/10 03:01:42;;;;;;;15.33;9.90;;;;;;;4.40;79.33;103125.91;5012995;28;20179;-77
2021/10/10 03:04:08;;;;;;;13.07;9.80;;;;;;;4.31;79.52;103120.09;5001756;28;20220;-76
2021/10/10 03:06:33;;;;;;;14.47;10.13;;;;;;;4.28;79.48;103117.34;5006985;28;20206;-77
2021/10/10 03:08:58;;;;;;;15.07;10.60;;;;;;;4.29;78.68;103122.53;5016713;28;20322;-77
2021/10/10 03:11:24;;;;;;;15.87;10.53;;;;;;;4.28;78.87;103118.19;5013038;28;20668;-77
2021/10/10 03:13:49;;;;;;;14.27;9.60;;;;;;;4.26;78.73;103113.75;5008142;28;20210;-77
2021/10/10 03:16:14;;;;;;;13.53;10.13;;;;;;;4.20;78.67;103113.28;5002905;28;20254;-77
2021/10/10 03:18:40;;;;;;;14.33;10.27;;;;;;;4.13;79.24;103104.28;5004296;28;20671;-77
2021/10/10 03:21:06;;;;;;;14.20;10.00;;;;;;;4.14;79.75;103102.66;5003400;28;20663;-77
2021/10/10 03:23:31;;;;;;;15.03;10.40;;;;;;;4.13;79.27;103108.47;5005859;28;20728;-77
2021/10/10 03:25:56;;;;;;;15.37;10.57;;;;;;;4.06;80.34;103106.22;5009079;28;20187;-77
2021/10/10 03:28:22;;;;;;;15.53;10.70;;;;;;;4.07;80.36;103108.88;5015935;28;20187;-77
2021/10/10 03:30:47;;;;;;;15.20;10.80;;;;;;;4.03;79.93;103106.84;5007236;28;20235;-78
2021/10/10 03:33:13;;;;;;;14.80;10.17;;;;;;;3.92;79.94;103105.06;5008193;28;20744;-76
2021/10/10 03:35:38;;;;;;;14.47;9.80;;;;;;;3.94;79.87;103105.19;5008693;28;20230;-77
2021/10/10 03:38:03;;;;;;;14.70;9.90;;;;;;;3.94;80.33;103108.63;5010392;28;20191;-77
2021/10/10 03:40:29;;;;;;;14.80;10.33;;;;;;;3.93;80.32;103105.97;5015408;28;20211;-78
2021/10/10 03:42:54;;;;;;;18.37;10.80;;;;;;;3.91;79.60;103103.28;5006505;28;20235;-77
2021/10/10 03:45:20;;;;;;;13.90;9.97;;;;;;;3.87;79.87;103102.94;5007614;28;20655;-77
2021/10/10 03:47:45;;;;;;;14.73;10.70;;;;;;;3.85;80.42;103102.81;5003051;28;20195;-77
2021/10/10 03:50:11;;;;;;;16.90;10.90;;;;;;;3.83;79.82;103111.03;5007646;28;20195;-77
2021/10/10 03:52:36;;;;;;;12.80;9.73;;;;;;;3.81;79.57;103104.94;5007650;28;20256;-77
2021/10/10 03:57:46;;;;;;;13.93;10.33;;;;;;;3.69;80.40;103106.50;5004745;28;20206;-76
2021/10/10 04:00:13;;;;;;;14.70;9.90;;;;;;;3.69;79.84;103109.03;5004912;28;20607;-77
2021/10/10 04:02:39;;;;;;;12.53;10.00;;;;;;;3.62;80.10;103102.56;4997196;28;20191;-77
2021/10/10 04:05:15;;;;;;;13.80;10.77;;;;;;;3.58;80.04;103103.06;5000418;28;20207;-77
2021/10/10 04:07:40;;;;;;;15.20;11.00;;;;;;;3.55;80.26;103105.31;4998587;28;20183;-76
2021/10/10 04:10:06;;;;;;;15.37;11.03;;;;;;;3.56;80.37;103106.22;5003311;28;20851;-77
2021/10/10 04:12:31;;;;;;;12.70;10.33;;;;;;;3.56;79.79;103101.16;5004842;28;20668;-77
2021/10/10 04:14:56;;;;;;;16.40;10.77;;;;;;;3.56;80.04;103091.94;5007907;28;20207;-77
2021/10/10 04:17:21;;;;;;;14.53;10.37;;;;;;;3.54;79.09;103098.50;5016039;28;20198;-77
2021/10/10 04:19:47;;;;;;;14.93;10.93;;;;;;;3.52;79.81;103089.00;5017016;28;20211;-77
2021/10/10 04:22:12;;;;;;;15.87;10.77;;;;;;;3.48;79.83;103085.31;5010780;28;20185;-77
2021/10/10 04:24:37;;;;;;;15.07;11.07;;;;;;;3.43;80.28;103090.75;4993124;28;20253;-77
2021/10/10 04:27:03;;;;;;;15.33;10.43;;;;;;;3.39;80.62;103084.56;5003602;28;20191;-77
2021/10/10 04:29:28;;;;;;;15.33;10.30;;;;;;;3.36;80.42;103081.75;5014501;28;20203;-77
2021/10/10 04:31:53;;;;;;;13.83;10.20;;;;;;;3.41;80.26;103084.69;5009926;28;20306;-77
2021/10/10 04:34:19;;;;;;;14.57;10.73;;;;;;;3.39;80.36;103082.03;4997693;28;20239;-77
2021/10/10 04:36:44;;;;;;;18.80;12.73;;;;;;;3.37;80.50;103078.50;5007408;28;20187;-77
2021/10/10 04:39:09;;;;;;;17.87;12.00;;;;;;;3.38;81.25;103071.78;5009415;28;20223;-77
2021/10/10 04:41:35;;;;;;;15.33;11.17;;;;;;;3.33;81.33;103070.50;4999612;28;20198;-78
2021/10/10 04:44:00;;;;;;;16.37;10.70;;;;;;;3.29;81.27;103069.38;5006110;28;20214;-76
2021/10/10 04:46:25;;;;;;;16.30;11.33;;;;;;;3.36;80.70;103063.16;5004674;28;20226;-77
2021/10/10 04:48:51;;;;;;;16.77;10.77;;;;;;;3.33;80.51;103066.34;5007806;28;20258;-77
2021/10/10 04:51:16;;;;;;;15.07;10.30;;;;;;;3.32;80.73;103059.47;5012802;28;20264;-77
2021/10/10 04:53:41;;;;;;;16.30;11.43;;;;;;;3.28;80.82;103060.00;5006283;28;20241;-76
2021/10/10 04:56:07;;;;;;;16.27;11.37;;;;;;;3.29;81.13;103061.78;5000457;28;20187;-77
2021/10/10 04:58:32;;;;;;;14.50;10.93;;;;;;;3.26;80.55;103055.56;5030577;28;20224;-77
2021/10/10 05:00:57;;;;;;;14.43;10.80;;;;;;;3.19;80.85;103049.09;5001751;28;20209;-77
2021/10/10 05:03:24;;;;;;;16.17;11.33;;;;;;;3.16;82.13;103051.38;5004053;28;20195;-77
2021/10/10 05:05:50;;;;;;;15.30;11.30;;;;;;;3.15;81.13;103047.06;5003579;28;20201;-77
2021/10/10 05:08:16;;;;;;;15.57;11.77;;;;;;;3.13;81.55;103046.03;5008616;28;20192;-76
2021/10/10 05:10:41;;;;;;;18.30;12.07;;;;;;;3.11;82.66;103047.56;5018599;28;20199;-77
2021/10/10 05:13:06;;;;;;;17.83;11.87;;;;;;;3.12;81.55;103049.34;5008398;28;20242;-77
2021/10/10 05:15:32;;;;;;;19.43;11.80;;;;;;;3.12;82.02;103053.53;5019015;28;20207;-77
2021/10/10 05:17:57;;;;;;;15.60;11.03;;;;;;;3.06;81.03;103053.00;5023760;28;20267;-77
2021/10/10 05:20:22;;;;;;;16.60;10.60;;;;;;;3.03;80.69;103047.69;5009721;28;20220;-77
2021/10/10 05:22:48;;;;;;;16.93;11.13;;;;;;;3.01;81.34;103054.25;5010175;28;20187;-76
2021/10/10 05:25:13;;;;;;;15.00;11.27;;;;;;;2.95;80.97;103052.06;4992987;28;20210;-77
2021/10/10 05:27:39;;;;;;;14.63;10.90;;;;;;;2.91;80.66;103054.22;4998509;28;20185;-77
2021/10/10 05:30:05;;;;;;;18.50;10.70;;;;;;;2.92;79.77;103050.94;5007026;28;20270;-77
2021/10/10 05:32:30;;;;;;;17.23;10.67;;;;;;;2.92;79.95;103058.53;5016071;28;20258;-76
2021/10/10 05:34:56;;;;;;;13.73;10.50;;;;;;;2.86;80.33;103052.97;5007406;28;20298;-77
2021/10/10 05:37:22;;;;;;;16.03;11.07;;;;;;;2.90;80.00;103050.81;5006530;28;20202;-77
2021/10/10 05:39:47;;;;;;;15.50;10.33;;;;;;;2.92;80.78;103049.31;5011584;28;20217;-76
2021/10/10 05:42:13;;;;;;;17.77;10.77;;;;;;;2.90;80.74;103044.88;5003462;28;20270;-77
2021/10/10 05:44:38;;;;;;;15.40;11.10;;;;;;;2.89;80.82;103048.16;4999947;28;20209;-76
2021/10/10 05:47:04;;;;;;;18.20;11.17;;;;;;;2.86;81.56;103043.75;5009511;28;20194;-77
2021/10/10 05:49:29;;;;;;;16.17;11.47;;;;;;;2.88;81.53;103038.78;4991836;28;20282;-77
2021/10/10 05:51:58;;;;;;;15.23;11.17;;;;;;;2.88;81.27;103034.63;5007797;28;20298;-77
2021/10/10 05:54:23;;;;;;;16.77;11.47;;;;;;;2.91;81.23;103042.47;5010223;28;20218;-77
2021/10/10 05:56:48;;;;;;;17.80;11.97;;;;;;;2.89;81.51;103038.06;5001411;28;20186;-77
2021/10/10 05:59:16;;;;;;;19.40;12.10;;;;;;;2.90;82.72;103040.69;5009048;28;20217;-77
2021/10/10 06:01:41;;;;;;;17.67;11.73;;;;;;;2.92;82.10;103035.75;4984023;28;20355;-76
2021/10/10 06:04:07;;;;;;;17.07;12.07;;;;;;;2.95;82.50;103036.03;4979473;28;20638;-76
2021/10/10 06:06:32;;;;;;;14.13;11.07;;;;;;;2.98;81.71;103031.22;4979008;28;20198;-76
2021/10/10 06:08:58;;;;;;;19.47;12.93;;;;;;;3.04;83.31;103032.63;4972925;28;20189;-77
2021/10/10 06:11:24;;;;;;;17.70;12.40;;;;;;;3.06;83.49;103025.16;4959469;28;20192;-77
2021/10/10 06:13:49;;;;;;;17.60;12.63;;;;;;;3.15;83.78;103029.34;4959947;28;20224;-77
2021/10/10 06:16:15;;;;;;;19.80;12.63;;;;;;;3.22;83.46;103025.69;4979739;28;20557;-77
2021/10/10 06:18:41;;;;;;;17.87;13.23;;;;;;;3.25;83.39;103018.34;4978973;28;20200;-76
2021/10/10 06:21:06;;;;;;;29.33;21.63;;;;;;;3.32;83.88;103021.50;4979237;28;20189;-77
2021/10/10 06:23:32;;;;;;;24.60;17.07;;;;;;;3.35;83.34;103019.25;4978519;28;20191;-77
2021/10/10 06:25:57;;;;;;;27.90;17.43;;;;;;;3.44;83.76;103022.53;4972429;28;20193;-77
2021/10/10 06:28:22;;;;;;;49.57;30.23;;;;;;;3.52;84.17;103018.09;4959490;29;20658;-77
2021/10/10 06:30:48;;;;;;;24.90;16.83;;;;;;;3.72;84.76;103013.91;4960128;28;20181;-76
2021/10/10 06:33:14;;;;;;;32.67;21.93;;;;;;;3.90;85.66;103012.84;4959836;28;20194;-75
2021/10/10 06:35:39;;;;;;;24.17;16.67;;;;;;;4.21;85.85;103006.94;4959823;28;20216;-77
2021/10/10 06:38:04;;;;;;;22.83;15.17;;;;;;;4.33;85.29;103007.03;4959034;28;20185;-77
2021/10/10 06:40:29;;;;;;;19.43;14.40;;;;;;;4.48;84.83;103008.22;4989613;28;20209;-77
2021/10/10 06:42:55;;;;;;;22.00;14.70;;;;;;;4.62;84.52;103008.53;4959141;28;20200;-77
2021/10/10 06:45:21;;;;;;;21.17;14.47;;;;;;;4.76;84.31;103017.19;4958624;28;20832;-77
2021/10/10 06:47:46;;;;;;;22.93;15.20;;;;;;;4.89;83.99;103009.78;4958917;28;20173;-77
2021/10/10 06:50:11;;;;;;;19.83;14.03;;;;;;;5.02;83.75;103013.34;4958661;28;20302;-77
2021/10/10 06:52:37;;;;;;;21.47;14.83;;;;;;;5.17;83.17;103009.44;4984862;28;20705;-77
2021/10/10 06:55:03;;;;;;;20.83;14.60;;;;;;;5.34;82.70;103014.13;4992650;28;20208;-77
2021/10/10 06:57:30;;;;;;;21.00;14.90;;;;;;;5.53;81.49;103001.16;4997583;28;20189;-77
2021/10/10 06:59:58;;;;;;;23.13;16.63;;;;;;;5.74;81.09;103008.69;4984513;28;20216;-77
2021/10/10 07:02:24;;;;;;;18.77;13.90;;;;;;;5.97;80.45;103007.84;4959658;28;20192;-77
2021/10/10 07:04:50;;;;;;;20.40;14.00;;;;;;;6.17;79.64;103011.03;4959531;28;20210;-76
2021/10/10 07:07:15;;;;;;;21.40;13.90;;;;;;;6.29;78.57;103013.56;4958657;28;20252;-77
2021/10/10 07:09:40;;;;;;;21.93;13.50;;;;;;;6.40;78.60;103013.56;4959354;28;20264;-77
2021/10/10 07:12:06;;;;;;;20.03;13.30;;;;;;;6.63;78.06;103013.50;4958815;28;20204;-77
2021/10/10 07:14:31;;;;;;;24.17;14.43;;;;;;;6.84;77.42;103002.28;4959000;28;20220;-76
2021/10/10 07:16:57;;;;;;;19.27;14.00;;;;;;;6.82;76.65;103003.81;4959777;28;20193;-77
2021/10/10 07:19:25;;;;;;;18.63;12.20;;;;;;;6.94;77.67;103006.31;4959401;28;20221;-77
2021/10/10 07:21:59;;;;;;;19.53;13.57;;;;;;;7.20;75.90;102993.72;4959406;28;20169;-78
2021/10/10 07:27:08;;;;;;;19.67;14.57;;;;;;;7.64;75.35;102990.78;4953479;28;20261;-77
2021/10/10 07:29:34;;;;;;;17.87;12.80;;;;;;;7.69;74.14;102989.41;4985935;28;20239;-77
2021/10/10 07:31:59;;;;;;;17.93;13.03;;;;;;;7.92;72.77;102981.56;4972075;28;20189;-77
2021/10/10 07:34:25;;;;;;;17.63;13.37;;;;;;;8.07;73.21;102986.78;4956702;28;20217;-76
2021/10/10 07:36:50;;;;;;;19.23;13.40;;;;;;;8.21;71.23;102983.47;4956300;29;20189;-76
2021/10/10 07:39:15;;;;;;;16.90;12.87;;;;;;;8.20;71.75;102996.97;4956331;28;20225;-77
2021/10/10 07:41:41;;;;;;;16.53;13.83;;;;;;;8.08;71.46;102994.53;4957348;28;20186;-76
2021/10/10 07:44:08;;;;;;;18.43;13.23;;;;;;;8.08;71.83;102984.31;4957244;28;20641;-77
2021/10/10 07:46:37;;;;;;;20.57;13.90;;;;;;;8.29;71.40;102984.84;4956760;28;20189;-78
2021/10/10 07:49:03;;;;;;;19.50;13.23;;;;;;;8.45;70.18;102979.88;4957323;28;20193;-77
2021/10/10 07:51:28;;;;;;;20.13;14.03;;;;;;;8.67;68.73;102978.72;4968683;28;20189;-77
2021/10/10 07:53:54;;;;;;;19.43;13.57;;;;;;;9.11;68.67;102976.28;4982077;28;20243;-77
2021/10/10 07:56:20;;;;;;;18.50;13.97;;;;;;;8.84;68.34;102990.88;4976713;28;20211;-78
2021/10/10 07:58:45;;;;;;;17.87;12.93;;;;;;;9.10;67.19;102985.66;4977196;28;20212;-77
2021/10/10 08:01:10;;;;;;;17.70;13.63;;;;;;;8.94;66.71;102993.19;4976916;28;20188;-78
2021/10/10 08:03:36;;;;;;;15.87;12.63;;;;;;;9.26;66.59;102990.00;4977047;28;20708;-77
2021/10/10 08:06:01;;;;;;;22.53;13.73;;;;;;;9.33;66.92;102981.88;4976743;28;20201;-78
2021/10/10 08:08:26;;;;;;;19.33;13.70;;;;;;;9.73;65.21;102985.97;4973523;28;20200;-78
2021/10/10 08:10:52;;;;;;;16.73;13.40;;;;;;;9.66;65.65;102981.28;4987057;28;20189;-78
2021/10/10 08:13:19;;;;;;;18.73;12.87;;;;;;;9.80;64.93;102973.59;4985058;28;20239;-77
2021/10/10 08:15:44;;;;;;;15.37;13.17;;;;;;;10.30;63.88;102971.31;4998586;28;20290;-77
2021/10/10 08:18:09;;;;;;;18.70;13.10;;;;;;;10.28;62.75;102973.78;4983536;28;20218;-78
2021/10/10 08:20:35;;;;;;;15.00;12.47;;;;;;;9.92;63.72;102975.97;4978154;28;20220;-78
2021/10/10 08:23:01;;;;;;;16.90;13.03;;;;;;;10.31;63.50;102978.19;4976838;28;20184;-78
2021/10/10 08:25:27;;;;;;;17.83;12.37;;;;;;;10.27;62.90;102972.03;4967678;28;20228;-78
2021/10/10 08:27:52;;;;;;;16.77;12.80;;;;;;;10.58;62.03;102972.91;4958730;28;20185;-77
2021/10/10 08:30:19;;;;;;;17.57;12.80;;;;;;;10.55;61.89;102974.41;4958209;28;20185;-77
2021/10/10 08:32:45;;;;;;;16.03;12.97;;;;;;;10.52;62.05;102971.69;4959971;28;20550;-78
2021/10/10 08:35:12;;;;;;;18.20;13.00;;;;;;;10.92;61.30;102968.72;4965178;28;20240;-78
2021/10/10 08:37:37;;;;;;;15.90;13.23;;;;;;;11.47;60.01;102952.78;4978608;28;20192;-78
2021/10/10 08:40:03;;;;;;;16.57;12.63;;;;;;;11.88;58.38;102949.69;4980235;28;20219;-78
2021/10/10 08:42:33;;;;;;;16.83;12.73;;;;;;;12.01;58.06;102936.63;4972409;28;20222;-77
2021/10/10 08:45:08;;;;;;;17.13;12.83;;;;;;;12.38;58.05;102952.94;4964011;28;20223;-77
2021/10/10 08:47:37;;;;;;;17.20;13.50;;;;;;;12.20;58.39;102957.22;4958401;28;20192;-78
2021/10/10 08:50:02;;;;;;;14.80;12.43;;;;;;;12.39;56.94;102960.72;4962025;28;20277;-78
2021/10/10 08:52:28;;;;;;;15.77;12.00;;;;;;;12.47;57.38;102953.34;4960752;29;20221;-75
2021/10/10 08:54:54;;;;;;;16.40;12.63;;;;;;;13.02;55.92;102949.03;4960078;28;20201;-78
2021/10/10 08:57:21;;;;;;;18.73;12.47;;;;;;;13.12;54.42;102948.59;4959927;28;20734;-76
2021/10/10 08:59:50;;;;;;;14.43;12.07;;;;;;;14.07;51.42;102941.41;4960854;28;20744;-78
2021/10/10 09:02:20;;;;;;;16.37;12.10;;;;;;;16.93;45.75;102915.75;4962051;28;20185;-77
2021/10/10 09:04:45;;;;;;;14.80;11.40;;;;;;;19.86;38.50;102905.59;4959769;28;20216;-76
2021/10/10 09:07:11;;;;;;;16.37;11.97;;;;;;;21.72;35.96;102889.50;4960117;28;20193;-77
2021/10/10 09:09:37;;;;;;;14.07;12.07;;;;;;;21.91;34.19;102893.97;4960372;28;20181;-77
2021/10/10 09:12:27;;;;;;;14.37;12.37;;;;;;;20.57;37.20;102907.47;4960863;28;20247;-80
2021/10/10 09:15:15;;;;;;;14.37;12.10;;;;;;;22.21;34.25;102899.31;4966873;28;20223;-77
2021/10/10 09:17:57;;;;;;;14.30;12.10;;;;;;;23.48;32.03;102894.44;4978591;28;20215;-79
2021/10/10 09:20:31;;;;;;;14.63;12.90;;;;;;;22.54;33.01;102893.41;5009691;28;20791;-76
2021/10/10 09:22:57;;;;;;;13.87;11.57;;;;;;;22.76;32.07;102891.72;4994243;28;20204;-77
2021/10/10 09:25:22;;;;;;;14.73;12.30;;;;;;;22.15;33.74;102890.59;5008108;28;20570;-76
2021/10/10 09:27:48;;;;;;;13.87;12.47;;;;;;;20.92;35.54;102900.06;4964561;28;20192;-76
2021/10/10 09:30:14;;;;;;;16.73;12.93;;;;;;;18.48;39.91;102920.44;4978393;28;20207;-76
2021/10/10 09:32:47;;;;;;;15.20;13.17;;;;;;;19.70;37.79;102908.84;4979438;28;20220;-76
2021/10/10 09:35:28;;;;;;;15.17;13.20;;;;;;;19.85;37.54;102918.63;4977850;28;20276;-77
2021/10/10 09:38:19;;;;;;;15.60;13.07;;;;;;;19.41;38.46;102914.44;4975070;28;20196;-77
2021/10/10 09:40:50;;;;;;;13.53;11.97;;;;;;;19.67;38.23;102916.59;4978422;28;20212;-77
2021/10/10 09:43:15;;;;;;;13.80;11.73;;;;;;;21.00;35.91;102906.25;4978475;28;20228;-77
2021/10/10 09:45:52;;;;;;;14.70;13.20;;;;;;;22.38;34.71;102900.28;4978534;28;20615;-77
2021/10/10 09:48:29;;;;;;;14.20;12.70;;;;;;;22.87;32.72;102895.22;4978260;28;20192;-78
2021/10/10 09:50:54;;;;;;;14.80;13.20;;;;;;;21.75;33.82;102893.88;4977326;28;20808;-77
2021/10/10 09:53:28;;;;;;;14.53;13.03;;;;;;;21.09;35.23;102903.75;4978816;28;20213;-77
2021/10/10 09:55:57;;;;;;;14.77;12.37;;;;;;;20.26;36.94;102912.31;4961259;28;20180;-77
2021/10/10 09:58:43;;;;;;;15.90;14.27;;;;;;;22.06;34.81;102887.97;4961285;28;20782;-77
2021/10/10 10:01:14;;;;;;;13.97;12.47;;;;;;;22.35;34.59;102870.69;4979200;28;20200;-77
2021/10/10 10:03:54;;;;;;;17.23;14.03;;;;;;;22.26;34.00;102873.25;4961367;28;20189;-78
2021/10/10 10:06:20;;;;;;;14.13;12.63;;;;;;;23.04;32.35;102875.22;4979578;28;20200;-77
2021/10/10 10:08:46;;;;;;;14.33;12.70;;;;;;;23.40;32.67;102878.75;4978396;28;20184;-77
2021/10/10 10:11:12;;;;;;;14.67;12.70;;;;;;;22.37;33.25;102887.22;4978935;28;20550;-77
2021/10/10 10:13:37;;;;;;;13.43;11.77;;;;;;;24.15;31.05;102868.13;4979627;28;20189;-77
2021/10/10 10:16:05;;;;;;;14.52;13.02;;;;;;;24.00;30.78;102869.94;4978321;28;20301;-78
2021/10/10 10:18:30;;;;;;;13.63;12.23;;;;;;;25.89;29.14;102851.09;4978692;28;20678;-78
2021/10/10 10:20:56;;;;;;;15.15;12.05;;;;;;;27.25;27.31;102861.47;4978176;28;20227;-78
2021/10/10 10:23:22;;;;;;;13.45;12.15;;;;;;;24.02;31.28;102853.34;4977884;28;20200;-78
2021/10/10 10:25:48;;;;;;;14.05;12.60;;;;;;;20.56;36.85;102866.69;4961110;28;20243;-79
2021/10/10 10:28:14;;;;;;;14.20;12.47;;;;;;;21.81;35.95;102859.97;4978753;28;20217;-76
2021/10/10 10:30:39;;;;;;;13.27;11.87;;;;;;;20.28;37.51;102863.72;4977032;28;20217;-78
2021/10/10 10:33:05;;;;;;;15.07;12.77;;;;;;;19.84;39.82;102859.63;4978187;28;20224;-77
2021/10/10 10:35:42;;;;;;;13.20;11.73;;;;;;;20.25;38.73;102854.16;4978767;28;20264;-76
2021/10/10 10:38:08;;;;;;;14.50;12.67;;;;;;;20.02;38.94;102849.47;4978621;28;20185;-77
2021/10/10 10:40:34;;;;;;;14.60;12.53;;;;;;;18.46;42.59;102860.72;4961218;28;20751;-77
2021/10/10 10:43:04;;;;;;;14.63;12.80;;;;;;;17.02;45.16;102867.72;4978786;28;20177;-77
2021/10/10 10:45:39;;;;;;;14.37;12.87;;;;;;;16.61;46.38;102863.16;4978234;28;20782;-75
2021/10/10 10:48:08;;;;;;;16.20;13.43;;;;;;;16.62;47.25;102862.31;4978615;28;20192;-78
2021/10/10 10:50:37;;;;;;;13.80;12.40;;;;;;;16.44;47.83;102856.63;4978143;28;20195;-77
2021/10/10 10:53:13;;;;;;;14.50;12.87;;;;;;;15.86;49.51;102854.88;4978650;28;20192;-77
2021/10/10 10:55:43;;;;;;;16.00;13.30;;;;;;;15.92;49.56;102857.63;4976441;28;20578;-77
2021/10/10 10:58:13;;;;;;;16.73;11.97;;;;;;;15.85;49.80;102846.25;4977061;28;20243;-77
2021/10/10 11:01:03;;;;;;;16.73;12.30;;;;;;;15.73;49.33;102832.06;4977084;28;20268;-77
2021/10/10 11:03:30;;;;;;;15.03;11.90;;;;;;;15.62;49.15;102824.03;4973597;28;20207;-77
2021/10/10 11:06:04;;;;;;;16.23;12.13;;;;;;;16.51;47.54;102811.13;4977224;28;20185;-77
2021/10/10 11:08:38;;;;;;;12.17;10.83;;;;;;;17.43;44.67;102809.19;4977928;28;20243;-77
2021/10/10 11:11:03;;;;;;;14.23;11.87;;;;;;;17.51;43.24;102802.47;4978441;28;20423;-77
2021/10/10 11:13:36;;;;;;;14.83;11.87;;;;;;;17.17;44.40;102812.84;4976503;28;20199;-77
2021/10/10 11:16:15;;;;;;;14.20;10.73;;;;;;;17.00;45.21;102807.22;4976741;28;20316;-78
2021/10/10 11:18:51;;;;;;;13.50;10.70;;;;;;;18.14;43.43;102806.44;4978735;28;20193;-78